Terminal Aerodrome Forecast
Issued by NWS

Home | Current Version | Previous Version | Text Only | Print | Product List | Glossary On
Versions: 1 2 3 4 5 6 7 8 9 10 11 12
000
FTUS46 KSTO 022300 RRA
TAFSAC
TAF
KSAC 022342Z 0300/0324 22010KT P6SM SKC
     FM031000 15005KT P6SM SCT015
      TEMPO 0312/0316 OVC015
     FM031700 24006KT P6SM FEW025=

USA.gov is the U.S. government's official web portal to all federal, state and local government web resources and services.